PST,Max TemperatureF,Mean TemperatureF,Min TemperatureF,Max Dew PointF,MeanDew PointF,Min DewpointF,Max Humidity, Mean Humidity, Min Humidity, Max Sea Level PressureIn, Mean Sea Level PressureIn, Min Sea Level PressureIn, Max VisibilityMiles, Mean VisibilityMiles, Min VisibilityMiles, Max Wind SpeedMPH, Mean Wind SpeedMPH, Max Gust SpeedMPH,PrecipitationIn, CloudCover, Events, WindDirDegrees
2013-1-1,48,38,28,27,20,12,92,60,28,30.17,30.09,30.04,,,,32,17,37,0.00,,,57
2013-1-2,55,45,34,13,10,7,38,27,15,30.03,29.99,29.95,,,,29,18,40,0.00,,,54
2013-1-3,56,48,39,11,7,3,27,21,14,30.12,30.04,29.95,,,,31,16,37,0.00,,,52
2013-1-4,57,42,26,9,5,2,39,25,10,30.20,30.16,30.11,,,,21,9,26,0.00,,,48
2013-1-5,61,43,24,12,6,-3,46,27,8,30.23,30.18,30.12,,,,22,8,25,0.00,,,42
2013-1-6,50,38,25,39,29,12,92,70,47,30.14,30.06,29.91,,,,21,8,25,0.12,,,244
2013-1-7,56,44,32,37,28,18,93,58,22,29.99,29.93,29.87,,,,24,8,32,0.11,,,45
2013-1-8,70,49,28,30,24,17,69,44,18,30.11,30.03,29.97,,,,18,6,23,0.00,,,48
2013-1-9,71,53,35,43,32,26,85,53,20,30.12,30.03,29.94,,,,21,6,25,0.00,,,64
2013-1-10,47,40,32,43,35,29,92,75,57,29.98,29.90,29.87,,,,29,16,37,0.08,,,252
2013-1-11,44,34,23,35,22,16,100,67,34,30.10,30.03,29.98,,,,17,5,23,0.00,,,292
2013-1-12,47,34,21,26,19,13,92,59,25,30.08,30.02,29.97,,,,15,4,18,0.01,,,73
2013-1-13,48,35,21,24,18,10,81,54,27,30.08,30.01,29.94,,,,20,7,24,0.00,,,50
2013-1-14,47,38,28,13,1,-9,47,28,9,30.25,30.15,30.04,,,,28,14,33,0.00,,,63
2013-1-15,46,36,26,11,4,-4,31,25,19,30.35,30.29,30.25,,,,33,15,39,0.00,,,59
2013-1-16,58,50,41,18,15,13,32,27,21,30.27,30.17,30.04,,,,37,19,47,0.00,,,46
2013-1-17,64,58,52,14,12,11,20,17,13,30.12,30.08,30.03,,,,36,22,46,0.00,,,53
2013-1-18,65,59,52,17,14,12,22,18,13,30.09,30.06,30.02,,,,32,15,39,0.00,,,56
2013-1-19,67,57,47,14,12,9,23,18,12,30.14,30.09,30.04,,,,28,12,33,0.00,,,51
2013-1-20,70,52,34,14,10,5,40,24,8,30.10,30.06,29.98,,,,24,10,28,0.00,,,43
2013-1-21,70,49,27,11,5,-2,43,25,6,30.07,30.02,29.98,,,,25,11,31,0.00,,,53
2013-1-22,73,54,34,21,8,0,32,19,6,30.07,30.04,29.98,,,,24,12,30,0.00,,,46
2013-1-23,74,58,41,36,29,21,39,29,19,30.06,30.03,30.00,,,,15,7,20,0.00,,,50
2013-1-24,65,58,51,52,44,37,86,68,50,30.14,30.07,30.00,,,,10,1,17,0.00,,,71
2013-1-25,58,55,51,51,46,38,89,70,51,30.09,29.99,29.91,,,,20,9,24,0.88,,,67
2013-1-26,58,54,50,52,50,48,100,90,80,29.94,29.88,29.84,,,,17,7,22,0.14,,,232
2013-1-27,51,48,45,49,43,36,93,90,86,29.97,29.93,29.91,,,,20,10,29,0.02,,,234
2013-1-28,46,42,37,37,32,26,92,71,49,30.13,30.02,29.95,,,,21,11,26,0.30,,,246
2013-1-29,53,40,26,39,33,25,92,74,56,30.17,30.13,30.07,,,,20,6,23,0.00,,,215
2013-1-30,60,49,38,34,28,25,76,52,27,30.25,30.18,30.13,,,,26,16,35,0.00,,,61
2013-1-31,66,51,36,30,29,28,76,51,26,30.18,30.11,30.06,,,,28,13,33,0.00,,,48